Willow, Oklahoma
Current Conditions -  °F | °C
As of 10:15 AM on Monday 26 Jan 2015 (Local Time) from KAXS Reporting Station
Clear Clear  
Wind Chill: 46°   Ceiling: Unl
Heat Index: 48°   Visibility: 10mi
Dew Point: 36°   Wind: 6mph
Humidity: 62%   Direction: 270°W
Pressure: 30.19"   Gusts: NA
Location:  35.05°N, 99.51°W
Report Text: KAXS 261615Z AUTO 27005KT 10SM CLR 09/02 A3019 RMK AO2 T00900020
Loading
Personal Weather Stations






























Interactive Weather Map New forecast layout! Learn more

10-Day Weather Forecast

Advertisements
Track Severe Weather on mobile